sensor_id;sensor_type;location;lat;lon;timestamp;pressure;altitude;pressure_sealevel;temperature;humidity
2785;BME280;57944;48.722;9.316;2022-08-11T00:02:03;98498.31;;;17.47;63.50
2785;BME280;57944;48.722;9.316;2022-08-11T00:04:42;98489.31;;;17.38;63.49
2785;BME280;57944;48.722;9.316;2022-08-11T00:07:13;98496.72;;;17.34;64.71
2785;BME280;57944;48.722;9.316;2022-08-11T00:09:43;98499.75;;;17.31;63.19
2785;BME280;57944;48.722;9.316;2022-08-11T00:12:17;98496.28;;;17.26;64.71
2785;BME280;57944;48.722;9.316;2022-08-11T00:14:56;98498.59;;;17.15;64.42
2785;BME280;57944;48.722;9.316;2022-08-11T00:17:31;98493.31;;;17.10;65.02
2785;BME280;57944;48.722;9.316;2022-08-11T00:20:08;98489.97;;;17.10;64.86
2785;BME280;57944;48.722;9.316;2022-08-11T00:22:45;98492.66;;;17.03;65.40
2785;BME280;57944;48.722;9.316;2022-08-11T00:25:19;98481.34;;;17.04;65.04
2785;BME280;57944;48.722;9.316;2022-08-11T00:27:52;98485.81;;;16.97;66.75
2785;BME280;57944;48.722;9.316;2022-08-11T00:30:22;98489.38;;;16.96;66.19
2785;BME280;57944;48.722;9.316;2022-08-11T00:32:55;98498.25;;;17.00;67.87
2785;BME280;57944;48.722;9.316;2022-08-11T00:35:30;98489.38;;;16.96;67.66
2785;BME280;57944;48.722;9.316;2022-08-11T00:38:27;98494.06;;;16.87;67.57
2785;BME280;57944;48.722;9.316;2022-08-11T00:41:10;98492.69;;;16.85;68.98
2785;BME280;57944;48.722;9.316;2022-08-11T00:44:06;98490.38;;;16.83;70.37
2785;BME280;57944;48.722;9.316;2022-08-11T00:46:54;98499.88;;;16.83;67.20
2785;BME280;57944;48.722;9.316;2022-08-11T00:49:42;98494.63;;;16.71;69.95
2785;BME280;57944;48.722;9.316;2022-08-11T00:52:32;98498.53;;;16.62;69.27
2785;BME280;57944;48.722;9.316;2022-08-11T00:55:41;98494.69;;;16.52;71.69
2785;BME280;57944;48.722;9.316;2022-08-11T01:02:16;98488.50;;;16.23;74.84
2785;BME280;57944;48.722;9.316;2022-08-11T01:05:22;98494.94;;;16.14;77.50
2785;BME280;57944;48.722;9.316;2022-08-11T01:08:46;98493.72;;;16.17;75.32
2785;BME280;57944;48.722;9.316;2022-08-11T01:12:08;98492.94;;;16.16;76.16
2785;BME280;57944;48.722;9.316;2022-08-11T01:15:28;98495.88;;;16.20;75.68
2785;BME280;57944;48.722;9.316;2022-08-11T01:22:27;98485.66;;;16.13;75.70
2785;BME280;57944;48.722;9.316;2022-08-11T01:25:43;98491.50;;;16.20;74.98
2785;BME280;57944;48.722;9.316;2022-08-11T01:32:36;98489.31;;;16.05;76.90
2785;BME280;57944;48.722;9.316;2022-08-11T01:39:25;98483.94;;;16.07;77.79
2785;BME280;57944;48.722;9.316;2022-08-11T01:45:44;98482.16;;;16.07;77.03
2785;BME280;57944;48.722;9.316;2022-08-11T01:48:38;98477.31;;;15.99;79.67
2785;BME280;57944;48.722;9.316;2022-08-11T01:51:25;98478.72;;;15.95;80.81
2785;BME280;57944;48.722;9.316;2022-08-11T01:54:05;98470.28;;;16.06;81.80
2785;BME280;57944;48.722;9.316;2022-08-11T01:57:05;98480.09;;;15.98;80.34
2785;BME280;57944;48.722;9.316;2022-08-11T01:59:44;98482.31;;;15.94;80.35
2785;BME280;57944;48.722;9.316;2022-08-11T02:02:29;98478.44;;;15.85;81.50
2785;BME280;57944;48.722;9.316;2022-08-11T02:05:32;98478.50;;;15.78;82.20
2785;BME280;57944;48.722;9.316;2022-08-11T02:08:25;98475.16;;;15.78;84.40
2785;BME280;57944;48.722;9.316;2022-08-11T02:11:17;98471.66;;;15.91;83.99
2785;BME280;57944;48.722;9.316;2022-08-11T02:14:19;98475.44;;;15.70;84.98
2785;BME280;57944;48.722;9.316;2022-08-11T02:17:10;98468.03;;;15.55;86.40
2785;BME280;57944;48.722;9.316;2022-08-11T02:19:54;98470.44;;;15.50;87.43
2785;BME280;57944;48.722;9.316;2022-08-11T02:22:51;98477.84;;;15.39;88.81
2785;BME280;57944;48.722;9.316;2022-08-11T02:25:45;98470.91;;;15.15;95.92
2785;BME280;57944;48.722;9.316;2022-08-11T02:28:28;98471.56;;;15.10;93.51
2785;BME280;57944;48.722;9.316;2022-08-11T02:31:24;98466.44;;;15.04;92.63
2785;BME280;57944;48.722;9.316;2022-08-11T02:34:44;98451.72;;;14.92;93.86
2785;BME280;57944;48.722;9.316;2022-08-11T02:37:41;98455.69;;;14.88;95.15
2785;BME280;57944;48.722;9.316;2022-08-11T02:40:23;98455.88;;;14.93;95.03
2785;BME280;57944;48.722;9.316;2022-08-11T02:43:27;98453.97;;;14.82;95.93
2785;BME280;57944;48.722;9.316;2022-08-11T02:46:17;98469.44;;;14.69;97.42
2785;BME280;57944;48.722;9.316;2022-08-11T02:48:59;98461.19;;;14.60;99.45
2785;BME280;57944;48.722;9.316;2022-08-11T02:52:07;98453.09;;;14.57;100.00
2785;BME280;57944;48.722;9.316;2022-08-11T02:55:02;98466.13;;;14.62;100.00
2785;BME280;57944;48.722;9.316;2022-08-11T02:58:10;98459.03;;;14.50;99.90
2785;BME280;57944;48.722;9.316;2022-08-11T03:00:54;98466.78;;;14.44;100.00
2785;BME280;57944;48.722;9.316;2022-08-11T03:03:35;98461.88;;;14.36;99.99
2785;BME280;57944;48.722;9.316;2022-08-11T03:06:13;98464.84;;;14.26;100.00
2785;BME280;57944;48.722;9.316;2022-08-11T03:08:59;98463.28;;;14.25;100.00
2785;BME280;57944;48.722;9.316;2022-08-11T03:11:50;98469.25;;;14.12;100.00
2785;BME280;57944;48.722;9.316;2022-08-11T03:14:47;98472.63;;;14.13;100.00
2785;BME280;57944;48.722;9.316;2022-08-11T03:17:40;98469.28;;;14.05;100.00
2785;BME280;57944;48.722;9.316;2022-08-11T03:20:31;98470.47;;;14.03;100.00
2785;BME280;57944;48.722;9.316;2022-08-11T03:23:16;98464.75;;;14.07;100.00
2785;BME280;57944;48.722;9.316;2022-08-11T03:25:59;98467.31;;;14.07;100.00
2785;BME280;57944;48.722;9.316;2022-08-11T03:28:36;98470.28;;;14.04;100.00
2785;BME280;57944;48.722;9.316;2022-08-11T03:31:22;98469.69;;;14.02;100.00
2785;BME280;57944;48.722;9.316;2022-08-11T03:34:03;98467.91;;;14.03;100.00
2785;BME280;57944;48.722;9.316;2022-08-11T03:37:13;98473.63;;;13.98;100.00
2785;BME280;57944;48.722;9.316;2022-08-11T03:40:23;98478.19;;;13.90;100.00
2785;BME280;57944;48.722;9.316;2022-08-11T03:43:27;98477.97;;;13.98;100.00
2785;BME280;57944;48.722;9.316;2022-08-11T03:46:08;98480.53;;;14.04;100.00
2785;BME280;57944;48.722;9.316;2022-08-11T03:48:53;98475.56;;;14.09;100.00
2785;BME280;57944;48.722;9.316;2022-08-11T03:51:37;98478.13;;;14.09;100.00
2785;BME280;57944;48.722;9.316;2022-08-11T03:54:32;98484.44;;;14.14;100.00
2785;BME280;57944;48.722;9.316;2022-08-11T04:01:07;98480.50;;;14.11;100.00
2785;BME280;57944;48.722;9.316;2022-08-11T04:04:21;98490.75;;;14.11;100.00
2785;BME280;57944;48.722;9.316;2022-08-11T04:10:56;98485.25;;;14.07;100.00
2785;BME280;57944;48.722;9.316;2022-08-11T04:14:14;98481.31;;;14.05;100.00
2785;BME280;57944;48.722;9.316;2022-08-11T04:17:47;98484.69;;;13.99;100.00
2785;BME280;57944;48.722;9.316;2022-08-11T04:20:48;98489.41;;;14.02;100.00
2785;BME280;57944;48.722;9.316;2022-08-11T04:23:59;98487.03;;;14.07;100.00
2785;BME280;57944;48.722;9.316;2022-08-11T04:27:16;98487.63;;;14.02;100.00
2785;BME280;57944;48.722;9.316;2022-08-11T04:30:03;98487.19;;;14.12;100.00
2785;BME280;57944;48.722;9.316;2022-08-11T04:33:16;98479.13;;;14.08;100.00
2785;BME280;57944;48.722;9.316;2022-08-11T04:36:27;98484.03;;;14.17;100.00
2785;BME280;57944;48.722;9.316;2022-08-11T04:39:37;98488.16;;;14.18;100.00
2785;BME280;57944;48.722;9.316;2022-08-11T04:53:05;98492.41;;;14.57;100.00
2785;BME280;57944;48.722;9.316;2022-08-11T04:56:23;98498.38;;;15.14;100.00
2785;BME280;57944;48.722;9.316;2022-08-11T05:00:03;98498.81;;;16.05;98.40
2785;BME280;57944;48.722;9.316;2022-08-11T05:03:44;98505.09;;;17.18;90.21
2785;BME280;57944;48.722;9.316;2022-08-11T05:06:48;98508.63;;;18.06;82.04
2785;BME280;57944;48.722;9.316;2022-08-11T05:09:59;98493.72;;;18.77;76.74
2785;BME280;57944;48.722;9.316;2022-08-11T05:12:44;98499.16;;;19.26;73.27
2785;BME280;57944;48.722;9.316;2022-08-11T05:15:23;98505.88;;;19.78;70.85
2785;BME280;57944;48.722;9.316;2022-08-11T05:18:22;98512.75;;;20.11;67.79
2785;BME280;57944;48.722;9.316;2022-08-11T05:21:10;98501.53;;;20.71;63.58
2785;BME280;57944;48.722;9.316;2022-08-11T05:24:08;98511.72;;;21.37;59.33
2785;BME280;57944;48.722;9.316;2022-08-11T05:26:58;98509.91;;;21.85;56.12
2785;BME280;57944;48.722;9.316;2022-08-11T05:29:54;98507.34;;;22.48;53.08
2785;BME280;57944;48.722;9.316;2022-08-11T05:32:43;98514.16;;;22.95;51.17
2785;BME280;57944;48.722;9.316;2022-08-11T05:35:37;98503.53;;;23.12;50.87
2785;BME280;57944;48.722;9.316;2022-08-11T05:38:33;98504.03;;;23.35;50.37
2785;BME280;57944;48.722;9.316;2022-08-11T05:41:19;98507.63;;;23.75;48.29
2785;BME280;57944;48.722;9.316;2022-08-11T05:44:04;98509.94;;;23.76;48.11
2785;BME280;57944;48.722;9.316;2022-08-11T05:46:52;98511.00;;;24.45;46.60
2785;BME280;57944;48.722;9.316;2022-08-11T05:49:36;98512.28;;;24.87;45.35
2785;BME280;57944;48.722;9.316;2022-08-11T05:52:23;98508.44;;;25.19;44.52
2785;BME280;57944;48.722;9.316;2022-08-11T05:55:09;98515.56;;;25.67;43.56
2785;BME280;57944;48.722;9.316;2022-08-11T05:57:56;98513.44;;;26.17;41.97
2785;BME280;57944;48.722;9.316;2022-08-11T06:00:29;98515.66;;;26.47;42.10
2785;BME280;57944;48.722;9.316;2022-08-11T06:03:03;98516.66;;;27.03;40.69
2785;BME280;57944;48.722;9.316;2022-08-11T06:05:38;98518.13;;;27.42;39.84
2785;BME280;57944;48.722;9.316;2022-08-11T06:08:11;98508.25;;;27.39;40.12
2785;BME280;57944;48.722;9.316;2022-08-11T06:10:44;98516.03;;;27.85;38.64
2785;BME280;57944;48.722;9.316;2022-08-11T06:13:16;98516.78;;;28.00;38.71
2785;BME280;57944;48.722;9.316;2022-08-11T06:15:49;98510.03;;;28.49;37.42
2785;BME280;57944;48.722;9.316;2022-08-11T06:18:25;98513.88;;;28.65;36.83
2785;BME280;57944;48.722;9.316;2022-08-11T06:20:57;98509.09;;;29.12;35.92
2785;BME280;57944;48.722;9.316;2022-08-11T06:23:31;98513.56;;;29.43;35.78
2785;BME280;57944;48.722;9.316;2022-08-11T06:26:08;98508.28;;;29.03;35.46
2785;BME280;57944;48.722;9.316;2022-08-11T06:28:43;98513.06;;;29.64;34.75
2785;BME280;57944;48.722;9.316;2022-08-11T06:31:18;98513.16;;;29.58;33.51
2785;BME280;57944;48.722;9.316;2022-08-11T06:34:06;98508.19;;;30.05;33.62
2785;BME280;57944;48.722;9.316;2022-08-11T06:36:59;98512.63;;;29.39;33.66
2785;BME280;57944;48.722;9.316;2022-08-11T06:39:47;98508.44;;;29.38;34.37
2785;BME280;57944;48.722;9.316;2022-08-11T06:42:46;98508.19;;;29.88;33.38
2785;BME280;57944;48.722;9.316;2022-08-11T06:45:28;98508.19;;;29.97;32.52
2785;BME280;57944;48.722;9.316;2022-08-11T06:48:00;98498.78;;;30.04;32.39
2785;BME280;57944;48.722;9.316;2022-08-11T06:50:35;98510.78;;;29.39;33.53
2785;BME280;57944;48.722;9.316;2022-08-11T06:53:19;98498.25;;;29.68;32.86
2785;BME280;57944;48.722;9.316;2022-08-11T06:55:50;98504.75;;;29.79;33.31
2785;BME280;57944;48.722;9.316;2022-08-11T06:58:38;98508.84;;;29.62;33.53
2785;BME280;57944;48.722;9.316;2022-08-11T07:01:37;98501.44;;;29.02;33.79
2785;BME280;57944;48.722;9.316;2022-08-11T07:04:39;98507.31;;;28.54;35.00
2785;BME280;57944;48.722;9.316;2022-08-11T07:11:43;98502.81;;;27.63;36.18
2785;BME280;57944;48.722;9.316;2022-08-11T07:14:31;98500.78;;;27.74;35.97
2785;BME280;57944;48.722;9.316;2022-08-11T07:17:20;98500.13;;;27.96;36.43
2785;BME280;57944;48.722;9.316;2022-08-11T07:19:54;98495.16;;;28.08;35.57
2785;BME280;57944;48.722;9.316;2022-08-11T07:22:42;98500.53;;;27.89;36.59
2785;BME280;57944;48.722;9.316;2022-08-11T07:25:29;98492.59;;;27.80;36.76
2785;BME280;57944;48.722;9.316;2022-08-11T07:28:22;98496.03;;;27.34;36.52
2785;BME280;57944;48.722;9.316;2022-08-11T07:31:09;98493.41;;;27.02;37.35
2785;BME280;57944;48.722;9.316;2022-08-11T07:33:46;98491.19;;;26.38;38.27
2785;BME280;57944;48.722;9.316;2022-08-11T07:36:39;98481.63;;;26.10;38.57
2785;BME280;57944;48.722;9.316;2022-08-11T07:39:19;98480.88;;;25.85;38.85
2785;BME280;57944;48.722;9.316;2022-08-11T07:41:53;98479.38;;;25.31;39.87
2785;BME280;57944;48.722;9.316;2022-08-11T07:44:25;98482.69;;;25.36;40.36
2785;BME280;57944;48.722;9.316;2022-08-11T07:47:02;98482.25;;;25.53;39.96
2785;BME280;57944;48.722;9.316;2022-08-11T07:49:51;98474.59;;;25.62;40.09
2785;BME280;57944;48.722;9.316;2022-08-11T07:52:36;98475.81;;;25.70;40.52
2785;BME280;57944;48.722;9.316;2022-08-11T07:55:14;98478.16;;;25.71;39.85
2785;BME280;57944;48.722;9.316;2022-08-11T07:57:51;98470.25;;;25.76;39.84
2785;BME280;57944;48.722;9.316;2022-08-11T08:00:49;98472.72;;;25.92;39.55
2785;BME280;57944;48.722;9.316;2022-08-11T08:03:43;98475.63;;;25.66;39.56
2785;BME280;57944;48.722;9.316;2022-08-11T08:06:28;98479.88;;;25.81;40.09
2785;BME280;57944;48.722;9.316;2022-08-11T08:09:13;98474.13;;;25.84;39.75
2785;BME280;57944;48.722;9.316;2022-08-11T08:12:03;98473.94;;;25.99;40.31
2785;BME280;57944;48.722;9.316;2022-08-11T08:14:46;98471.13;;;26.15;38.86
2785;BME280;57944;48.722;9.316;2022-08-11T08:17:29;98468.28;;;25.92;38.72
2785;BME280;57944;48.722;9.316;2022-08-11T08:20:38;98470.91;;;25.92;39.45
2785;BME280;57944;48.722;9.316;2022-08-11T08:23:09;98459.69;;;26.11;39.62
2785;BME280;57944;48.722;9.316;2022-08-11T08:25:42;98468.59;;;26.47;38.90
2785;BME280;57944;48.722;9.316;2022-08-11T08:28:18;98473.91;;;26.61;37.93
2785;BME280;57944;48.722;9.316;2022-08-11T08:30:50;98477.06;;;26.20;38.18
2785;BME280;57944;48.722;9.316;2022-08-11T08:33:21;98471.78;;;26.25;38.31
2785;BME280;57944;48.722;9.316;2022-08-11T08:35:54;98464.19;;;26.24;37.65
2785;BME280;57944;48.722;9.316;2022-08-11T08:38:47;98477.28;;;26.05;37.97
2785;BME280;57944;48.722;9.316;2022-08-11T08:41:22;98473.84;;;26.04;38.18
2785;BME280;57944;48.722;9.316;2022-08-11T08:44:00;98475.44;;;26.43;37.70
2785;BME280;57944;48.722;9.316;2022-08-11T08:46:55;98468.66;;;26.23;37.72
2785;BME280;57944;48.722;9.316;2022-08-11T08:49:33;98478.22;;;26.33;36.67
2785;BME280;57944;48.722;9.316;2022-08-11T08:52:10;98470.69;;;26.45;36.48
2785;BME280;57944;48.722;9.316;2022-08-11T08:55:05;98475.72;;;26.42;36.71
2785;BME280;57944;48.722;9.316;2022-08-11T08:57:37;98461.31;;;26.63;36.19
2785;BME280;57944;48.722;9.316;2022-08-11T09:00:15;98464.59;;;26.55;36.28
2785;BME280;57944;48.722;9.316;2022-08-11T09:02:51;98469.81;;;26.88;34.96
2785;BME280;57944;48.722;9.316;2022-08-11T09:05:23;98467.16;;;27.07;35.12
2785;BME280;57944;48.722;9.316;2022-08-11T09:07:54;98455.53;;;27.13;34.22
2785;BME280;57944;48.722;9.316;2022-08-11T09:10:25;98461.31;;;27.29;34.19
2785;BME280;57944;48.722;9.316;2022-08-11T09:12:58;98461.59;;;27.27;35.24
2785;BME280;57944;48.722;9.316;2022-08-11T09:15:32;98460.91;;;27.35;34.09
2785;BME280;57944;48.722;9.316;2022-08-11T09:18:04;98461.31;;;27.43;34.99
2785;BME280;57944;48.722;9.316;2022-08-11T09:20:37;98474.50;;;27.51;34.04
2785;BME280;57944;48.722;9.316;2022-08-11T09:23:09;98466.38;;;27.39;34.02
2785;BME280;57944;48.722;9.316;2022-08-11T09:26:13;98462.34;;;27.14;34.36
2785;BME280;57944;48.722;9.316;2022-08-11T09:28:59;98473.25;;;27.49;34.92
2785;BME280;57944;48.722;9.316;2022-08-11T09:31:33;98465.22;;;27.87;33.49
2785;BME280;57944;48.722;9.316;2022-08-11T09:34:08;98466.09;;;28.18;32.75
2785;BME280;57944;48.722;9.316;2022-08-11T09:36:42;98462.66;;;27.95;33.20
2785;BME280;57944;48.722;9.316;2022-08-11T09:39:27;98467.50;;;27.74;32.54
2785;BME280;57944;48.722;9.316;2022-08-11T09:42:12;98473.22;;;28.04;32.83
2785;BME280;57944;48.722;9.316;2022-08-11T09:44:50;98472.22;;;28.50;32.01
2785;BME280;57944;48.722;9.316;2022-08-11T09:47:27;98472.47;;;28.85;31.03
2785;BME280;57944;48.722;9.316;2022-08-11T09:50:00;98473.44;;;28.66;31.48
2785;BME280;57944;48.722;9.316;2022-08-11T09:52:36;98464.13;;;28.60;31.11
2785;BME280;57944;48.722;9.316;2022-08-11T09:55:28;98454.38;;;29.06;30.27
2785;BME280;57944;48.722;9.316;2022-08-11T09:58:00;98455.84;;;29.60;30.15
2785;BME280;57944;48.722;9.316;2022-08-11T10:01:01;98465.84;;;30.16;28.78
2785;BME280;57944;48.722;9.316;2022-08-11T10:03:40;98458.75;;;30.60;28.48
2785;BME280;57944;48.722;9.316;2022-08-11T10:06:11;98462.34;;;31.11;27.46
2785;BME280;57944;48.722;9.316;2022-08-11T10:09:02;98458.91;;;31.19;26.83
2785;BME280;57944;48.722;9.316;2022-08-11T10:11:37;98443.88;;;31.58;28.69
2785;BME280;57944;48.722;9.316;2022-08-11T10:14:21;98454.22;;;31.93;25.97
2785;BME280;57944;48.722;9.316;2022-08-11T10:17:13;98458.28;;;31.81;26.03
2785;BME280;57944;48.722;9.316;2022-08-11T10:19:49;98453.75;;;31.91;26.34
2785;BME280;57944;48.722;9.316;2022-08-11T10:22:33;98459.81;;;32.33;25.07
2785;BME280;57944;48.722;9.316;2022-08-11T10:25:17;98444.75;;;33.62;24.21
2785;BME280;57944;48.722;9.316;2022-08-11T10:28:03;98450.56;;;33.79;23.98
2785;BME280;57944;48.722;9.316;2022-08-11T10:30:56;98447.75;;;34.41;23.21
2785;BME280;57944;48.722;9.316;2022-08-11T10:33:42;98441.66;;;35.00;21.92
2785;BME280;57944;48.722;9.316;2022-08-11T10:36:31;98433.88;;;35.23;21.98
2785;BME280;57944;48.722;9.316;2022-08-11T10:39:05;98438.53;;;35.62;21.83
2785;BME280;57944;48.722;9.316;2022-08-11T10:41:36;98428.16;;;35.72;21.84
2785;BME280;57944;48.722;9.316;2022-08-11T10:44:38;98419.34;;;36.27;21.80
2785;BME280;57944;48.722;9.316;2022-08-11T10:47:12;98422.13;;;36.53;20.86
2785;BME280;57944;48.722;9.316;2022-08-11T10:49:56;98422.28;;;35.83;21.34
2785;BME280;57944;48.722;9.316;2022-08-11T10:52:43;98414.69;;;35.46;21.38
2785;BME280;57944;48.722;9.316;2022-08-11T10:55:29;98392.97;;;34.89;21.42
2785;BME280;57944;48.722;9.316;2022-08-11T10:58:12;98407.00;;;34.45;23.21
2785;BME280;57944;48.722;9.316;2022-08-11T11:00:56;98401.78;;;34.49;22.58
2785;BME280;57944;48.722;9.316;2022-08-11T11:03:29;98396.25;;;35.88;21.08
2785;BME280;57944;48.722;9.316;2022-08-11T11:06:08;98403.09;;;36.51;20.25
2785;BME280;57944;48.722;9.316;2022-08-11T11:09:03;98405.13;;;36.15;20.63
2785;BME280;57944;48.722;9.316;2022-08-11T11:11:38;98394.28;;;35.85;20.71
2785;BME280;57944;48.722;9.316;2022-08-11T11:14:30;98399.47;;;35.43;20.62
2785;BME280;57944;48.722;9.316;2022-08-11T11:17:27;98398.44;;;34.80;21.79
2785;BME280;57944;48.722;9.316;2022-08-11T11:20:16;98392.88;;;35.17;21.02
2785;BME280;57944;48.722;9.316;2022-08-11T11:23:10;98385.03;;;35.40;20.64
2785;BME280;57944;48.722;9.316;2022-08-11T11:26:08;98377.72;;;35.53;20.79
2785;BME280;57944;48.722;9.316;2022-08-11T11:29:30;98380.63;;;35.64;20.65
2785;BME280;57944;48.722;9.316;2022-08-11T11:32:24;98376.38;;;35.59;20.54
2785;BME280;57944;48.722;9.316;2022-08-11T11:35:23;98376.88;;;35.49;21.11
2785;BME280;57944;48.722;9.316;2022-08-11T11:37:56;98372.53;;;35.41;20.94
2785;BME280;57944;48.722;9.316;2022-08-11T11:40:32;98374.13;;;36.00;20.22
2785;BME280;57944;48.722;9.316;2022-08-11T11:43:06;98373.13;;;36.74;20.13
2785;BME280;57944;48.722;9.316;2022-08-11T11:45:40;98369.16;;;36.18;20.22
2785;BME280;57944;48.722;9.316;2022-08-11T11:48:11;98366.13;;;36.39;19.72
2785;BME280;57944;48.722;9.316;2022-08-11T11:50:42;98351.78;;;36.66;19.04
2785;BME280;57944;48.722;9.316;2022-08-11T11:53:12;98363.06;;;36.60;19.36
2785;BME280;57944;48.722;9.316;2022-08-11T11:55:43;98365.84;;;36.24;19.82
2785;BME280;57944;48.722;9.316;2022-08-11T11:58:17;98354.13;;;36.26;20.18
2785;BME280;57944;48.722;9.316;2022-08-11T12:01:00;98356.25;;;36.62;19.60
2785;BME280;57944;48.722;9.316;2022-08-11T12:03:52;98354.19;;;36.29;19.02
2785;BME280;57944;48.722;9.316;2022-08-11T12:06:24;98349.81;;;36.40;19.58
2785;BME280;57944;48.722;9.316;2022-08-11T12:08:57;98351.97;;;35.53;20.17
2785;BME280;57944;48.722;9.316;2022-08-11T12:11:30;98352.34;;;35.91;19.40
2785;BME280;57944;48.722;9.316;2022-08-11T12:14:19;98351.59;;;35.00;20.60
2785;BME280;57944;48.722;9.316;2022-08-11T12:16:55;98344.16;;;35.41;20.81
2785;BME280;57944;48.722;9.316;2022-08-11T12:19:27;98348.44;;;35.65;20.57
2785;BME280;57944;48.722;9.316;2022-08-11T12:22:02;98348.56;;;36.11;20.53
2785;BME280;57944;48.722;9.316;2022-08-11T12:24:46;98347.72;;;36.07;19.57
2785;BME280;57944;48.722;9.316;2022-08-11T12:27:30;98346.44;;;36.20;19.55
2785;BME280;57944;48.722;9.316;2022-08-11T12:30:09;98343.88;;;36.47;19.46
2785;BME280;57944;48.722;9.316;2022-08-11T12:32:41;98339.81;;;36.80;19.19
2785;BME280;57944;48.722;9.316;2022-08-11T12:35:15;98336.47;;;37.09;18.64
2785;BME280;57944;48.722;9.316;2022-08-11T12:37:50;98328.16;;;37.75;18.42
2785;BME280;57944;48.722;9.316;2022-08-11T12:40:33;98327.88;;;37.20;18.85
2785;BME280;57944;48.722;9.316;2022-08-11T12:43:37;98320.88;;;35.89;20.41
2785;BME280;57944;48.722;9.316;2022-08-11T12:46:31;98316.28;;;35.12;20.89
2785;BME280;57944;48.722;9.316;2022-08-11T12:49:10;98316.34;;;34.64;20.76
2785;BME280;57944;48.722;9.316;2022-08-11T12:51:54;98317.69;;;34.42;21.25
2785;BME280;57944;48.722;9.316;2022-08-11T12:54:57;98314.22;;;35.41;20.36
2785;BME280;57944;48.722;9.316;2022-08-11T12:57:33;98311.72;;;35.87;20.26
2785;BME280;57944;48.722;9.316;2022-08-11T13:00:18;98313.66;;;36.82;19.08
2785;BME280;57944;48.722;9.316;2022-08-11T13:03:08;98314.47;;;36.13;19.75
2785;BME280;57944;48.722;9.316;2022-08-11T13:05:55;98295.72;;;36.02;19.63
2785;BME280;57944;48.722;9.316;2022-08-11T13:08:28;98292.31;;;35.83;19.65
2785;BME280;57944;48.722;9.316;2022-08-11T13:11:00;98305.97;;;36.04;20.11
2785;BME280;57944;48.722;9.316;2022-08-11T13:13:47;98291.34;;;35.52;19.73
2785;BME280;57944;48.722;9.316;2022-08-11T13:16:27;98290.53;;;36.10;19.46
2785;BME280;57944;48.722;9.316;2022-08-11T13:19:00;98291.03;;;36.91;18.95
2785;BME280;57944;48.722;9.316;2022-08-11T13:21:31;98286.88;;;36.94;18.28
2785;BME280;57944;48.722;9.316;2022-08-11T13:24:01;98285.69;;;37.48;17.82
2785;BME280;57944;48.722;9.316;2022-08-11T13:26:36;98290.84;;;37.68;17.93
2785;BME280;57944;48.722;9.316;2022-08-11T13:29:22;98283.09;;;37.55;17.86
2785;BME280;57944;48.722;9.316;2022-08-11T13:31:55;98285.16;;;38.07;17.92
2785;BME280;57944;48.722;9.316;2022-08-11T13:34:30;98278.59;;;37.60;18.26
2785;BME280;57944;48.722;9.316;2022-08-11T13:37:03;98275.72;;;37.42;18.09
2785;BME280;57944;48.722;9.316;2022-08-11T13:39:36;98269.56;;;37.34;18.70
2785;BME280;57944;48.722;9.316;2022-08-11T13:42:06;98276.97;;;36.91;18.33
2785;BME280;57944;48.722;9.316;2022-08-11T13:44:37;98280.31;;;36.35;19.16
2785;BME280;57944;48.722;9.316;2022-08-11T13:47:12;98258.34;;;37.18;18.11
2785;BME280;57944;48.722;9.316;2022-08-11T13:49:46;98263.97;;;36.82;18.56
2785;BME280;57944;48.722;9.316;2022-08-11T13:52:18;98252.56;;;36.29;19.05
2785;BME280;57944;48.722;9.316;2022-08-11T13:54:49;98252.00;;;36.42;18.60
2785;BME280;57944;48.722;9.316;2022-08-11T13:57:21;98239.94;;;36.49;18.57
2785;BME280;57944;48.722;9.316;2022-08-11T14:00:12;98227.22;;;37.18;18.45
2785;BME280;57944;48.722;9.316;2022-08-11T14:02:56;98248.31;;;36.77;18.99
2785;BME280;57944;48.722;9.316;2022-08-11T14:05:45;98256.38;;;36.81;18.74
2785;BME280;57944;48.722;9.316;2022-08-11T14:08:23;98244.81;;;37.30;18.29
2785;BME280;57944;48.722;9.316;2022-08-11T14:11:06;98239.59;;;37.37;18.03
2785;BME280;57944;48.722;9.316;2022-08-11T14:14:21;98235.19;;;36.88;18.19
2785;BME280;57944;48.722;9.316;2022-08-11T14:16:55;98229.97;;;36.95;18.72
2785;BME280;57944;48.722;9.316;2022-08-11T14:19:27;98235.28;;;37.25;17.84
2785;BME280;57944;48.722;9.316;2022-08-11T14:22:02;98234.44;;;37.51;17.32
2785;BME280;57944;48.722;9.316;2022-08-11T14:24:38;98234.75;;;37.12;19.18
2785;BME280;57944;48.722;9.316;2022-08-11T14:27:12;98234.59;;;36.72;19.13
2785;BME280;57944;48.722;9.316;2022-08-11T14:30:05;98231.69;;;37.82;18.00
2785;BME280;57944;48.722;9.316;2022-08-11T14:32:56;98242.53;;;36.68;18.26
2785;BME280;57944;48.722;9.316;2022-08-11T14:35:43;98228.81;;;37.23;18.88
2785;BME280;57944;48.722;9.316;2022-08-11T14:38:19;98224.13;;;37.87;17.15
2785;BME280;57944;48.722;9.316;2022-08-11T14:40:51;98225.53;;;37.74;17.27
2785;BME280;57944;48.722;9.316;2022-08-11T14:43:33;98220.97;;;37.37;17.71
2785;BME280;57944;48.722;9.316;2022-08-11T14:46:38;98214.81;;;36.99;18.05
2785;BME280;57944;48.722;9.316;2022-08-11T14:49:22;98230.59;;;36.85;17.64
2785;BME280;57944;48.722;9.316;2022-08-11T14:51:54;98216.09;;;36.52;17.93
2785;BME280;57944;48.722;9.316;2022-08-11T14:54:30;98213.41;;;37.39;17.36
2785;BME280;57944;48.722;9.316;2022-08-11T14:57:14;98206.22;;;38.32;16.86
2785;BME280;57944;48.722;9.316;2022-08-11T15:00:08;98208.31;;;38.64;16.40
2785;BME280;57944;48.722;9.316;2022-08-11T15:02:40;98209.59;;;38.92;16.52
2785;BME280;57944;48.722;9.316;2022-08-11T15:05:25;98209.19;;;38.82;16.63
2785;BME280;57944;48.722;9.316;2022-08-11T15:07:58;98211.44;;;38.80;16.71
2785;BME280;57944;48.722;9.316;2022-08-11T15:10:31;98197.94;;;38.44;16.96
2785;BME280;57944;48.722;9.316;2022-08-11T15:13:04;98194.69;;;37.66;18.13
2785;BME280;57944;48.722;9.316;2022-08-11T15:15:35;98192.41;;;37.30;17.72
2785;BME280;57944;48.722;9.316;2022-08-11T15:18:21;98188.75;;;37.42;17.05
2785;BME280;57944;48.722;9.316;2022-08-11T15:20:53;98189.41;;;36.68;17.78
2785;BME280;57944;48.722;9.316;2022-08-11T15:23:39;98182.81;;;36.88;17.32
2785;BME280;57944;48.722;9.316;2022-08-11T15:26:33;98181.19;;;37.10;17.25
2785;BME280;57944;48.722;9.316;2022-08-11T15:29:23;98183.72;;;35.93;17.92